Terminal Aerodrome Forecast
Issued by NWS

Home | Current Version | Previous Version | Text Only | Print | Product List | Glossary On
Versions: 1 2 3 4 5 6 7 8 9 10 11 12
000
FTUS42 TJSJ 281700
TAFJMZ
TAF
TJMZ 281739Z 2818/2918 06010KT P6SM VCTS SCT025CB BKN040
      TEMPO 2818/2822 5SM SHRA BKN030
     FM282330 VRB05KT P6SM FEW025
     FM291530 27010KT P6SM SCT025 BKN040=

USA.gov is the U.S. government's official web portal to all federal, state and local government web resources and services.